sensor_id;sensor_type;location;lat;lon;timestamp;temperature;humidity
3202;DHT22;34843;48.744;8.958;2023-07-31T00:01:18;14.60;99.90
3202;DHT22;34843;48.744;8.958;2023-07-31T00:03:45;14.50;99.90
3202;DHT22;34843;48.744;8.958;2023-07-31T00:06:10;14.30;99.90
3202;DHT22;34843;48.744;8.958;2023-07-31T00:08:36;14.30;99.90
3202;DHT22;34843;48.744;8.958;2023-07-31T00:11:01;14.30;99.90
3202;DHT22;34843;48.744;8.958;2023-07-31T00:13:27;14.20;99.90
3202;DHT22;34843;48.744;8.958;2023-07-31T00:18:18;14.10;99.90
3202;DHT22;34843;48.744;8.958;2023-07-31T00:20:44;14.10;99.90
3202;DHT22;34843;48.744;8.958;2023-07-31T00:23:09;14.00;99.90
3202;DHT22;34843;48.744;8.958;2023-07-31T00:25:35;15.50;99.90
3202;DHT22;34843;48.744;8.958;2023-07-31T00:28:01;13.90;99.90
3202;DHT22;34843;48.744;8.958;2023-07-31T00:30:26;13.90;99.90
3202;DHT22;34843;48.744;8.958;2023-07-31T00:32:52;13.90;99.90
3202;DHT22;34843;48.744;8.958;2023-07-31T00:35:18;13.90;99.90
3202;DHT22;34843;48.744;8.958;2023-07-31T00:37:43;13.80;99.90
3202;DHT22;34843;48.744;8.958;2023-07-31T00:40:09;13.80;99.90
3202;DHT22;34843;48.744;8.958;2023-07-31T00:42:34;13.80;99.90
3202;DHT22;34843;48.744;8.958;2023-07-31T00:45:00;13.80;99.90
3202;DHT22;34843;48.744;8.958;2023-07-31T00:47:25;13.70;99.90
3202;DHT22;34843;48.744;8.958;2023-07-31T00:49:52;13.70;99.90
3202;DHT22;34843;48.744;8.958;2023-07-31T00:52:18;13.70;99.90
3202;DHT22;34843;48.744;8.958;2023-07-31T00:54:44;13.60;99.90
3202;DHT22;34843;48.744;8.958;2023-07-31T00:57:10;13.60;99.90
3202;DHT22;34843;48.744;8.958;2023-07-31T00:59:36;13.40;99.90
3202;DHT22;34843;48.744;8.958;2023-07-31T01:02:01;13.40;99.90
3202;DHT22;34843;48.744;8.958;2023-07-31T01:04:27;13.30;99.90
3202;DHT22;34843;48.744;8.958;2023-07-31T01:07:11;13.20;99.90
3202;DHT22;34843;48.744;8.958;2023-07-31T01:12:14;13.20;99.90
3202;DHT22;34843;48.744;8.958;2023-07-31T01:14:39;13.80;99.90
3202;DHT22;34843;48.744;8.958;2023-07-31T01:17:05;13.10;99.90
3202;DHT22;34843;48.744;8.958;2023-07-31T01:19:31;13.10;99.90
3202;DHT22;34843;48.744;8.958;2023-07-31T01:22:18;13.00;99.90
3202;DHT22;34843;48.744;8.958;2023-07-31T01:27:35;12.90;99.90
3202;DHT22;34843;48.744;8.958;2023-07-31T01:30:20;13.00;99.90
3202;DHT22;34843;48.744;8.958;2023-07-31T01:32:48;12.90;99.90
3202;DHT22;34843;48.744;8.958;2023-07-31T01:35:15;12.90;99.90
3202;DHT22;34843;48.744;8.958;2023-07-31T01:37:40;12.90;99.90
3202;DHT22;34843;48.744;8.958;2023-07-31T01:40:06;12.90;99.90
3202;DHT22;34843;48.744;8.958;2023-07-31T01:42:32;13.00;99.90
3202;DHT22;34843;48.744;8.958;2023-07-31T01:44:58;13.00;99.90
3202;DHT22;34843;48.744;8.958;2023-07-31T01:47:23;12.90;99.90
3202;DHT22;34843;48.744;8.958;2023-07-31T01:49:49;13.00;99.90
3202;DHT22;34843;48.744;8.958;2023-07-31T01:52:14;13.00;99.90
3202;DHT22;34843;48.744;8.958;2023-07-31T01:54:40;12.90;99.90
3202;DHT22;34843;48.744;8.958;2023-07-31T01:57:06;13.00;99.90
3202;DHT22;34843;48.744;8.958;2023-07-31T01:59:31;13.00;99.90
3202;DHT22;34843;48.744;8.958;2023-07-31T02:01:57;13.00;99.90
3202;DHT22;34843;48.744;8.958;2023-07-31T02:04:22;13.10;99.90
3202;DHT22;34843;48.744;8.958;2023-07-31T02:06:48;13.10;99.90
3202;DHT22;34843;48.744;8.958;2023-07-31T02:09:13;13.10;99.90
3202;DHT22;34843;48.744;8.958;2023-07-31T02:11:39;13.10;99.90
3202;DHT22;34843;48.744;8.958;2023-07-31T02:14:04;13.00;99.90
3202;DHT22;34843;48.744;8.958;2023-07-31T02:16:30;13.00;99.90
3202;DHT22;34843;48.744;8.958;2023-07-31T02:18:55;13.00;99.90
3202;DHT22;34843;48.744;8.958;2023-07-31T02:21:21;13.00;99.90
3202;DHT22;34843;48.744;8.958;2023-07-31T02:23:46;13.00;99.90
3202;DHT22;34843;48.744;8.958;2023-07-31T02:26:12;13.00;99.90
3202;DHT22;34843;48.744;8.958;2023-07-31T02:28:37;13.00;99.90
3202;DHT22;34843;48.744;8.958;2023-07-31T02:31:03;12.90;99.90
3202;DHT22;34843;48.744;8.958;2023-07-31T02:33:28;12.80;99.90
3202;DHT22;34843;48.744;8.958;2023-07-31T02:35:54;12.80;99.90
3202;DHT22;34843;48.744;8.958;2023-07-31T02:38:19;12.80;99.90
3202;DHT22;34843;48.744;8.958;2023-07-31T02:40:45;12.80;99.90
3202;DHT22;34843;48.744;8.958;2023-07-31T02:43:10;12.80;99.90
3202;DHT22;34843;48.744;8.958;2023-07-31T02:45:36;12.80;99.90
3202;DHT22;34843;48.744;8.958;2023-07-31T02:48:02;12.80;99.90
3202;DHT22;34843;48.744;8.958;2023-07-31T02:50:27;12.80;99.90
3202;DHT22;34843;48.744;8.958;2023-07-31T02:52:54;12.80;99.90
3202;DHT22;34843;48.744;8.958;2023-07-31T02:55:19;12.80;99.90
3202;DHT22;34843;48.744;8.958;2023-07-31T02:57:44;12.80;99.90
3202;DHT22;34843;48.744;8.958;2023-07-31T03:00:10;12.80;99.90
3202;DHT22;34843;48.744;8.958;2023-07-31T03:02:36;12.70;99.90
3202;DHT22;34843;48.744;8.958;2023-07-31T03:05:01;12.70;99.90
3202;DHT22;34843;48.744;8.958;2023-07-31T03:07:27;12.70;99.90
3202;DHT22;34843;48.744;8.958;2023-07-31T03:09:52;12.80;99.90
3202;DHT22;34843;48.744;8.958;2023-07-31T03:12:18;12.80;99.90
3202;DHT22;34843;48.744;8.958;2023-07-31T03:14:44;12.90;99.90
3202;DHT22;34843;48.744;8.958;2023-07-31T03:17:10;13.00;99.90
3202;DHT22;34843;48.744;8.958;2023-07-31T03:19:35;13.10;99.90
3202;DHT22;34843;48.744;8.958;2023-07-31T03:22:01;13.10;99.90
3202;DHT22;34843;48.744;8.958;2023-07-31T03:24:28;13.10;99.90
3202;DHT22;34843;48.744;8.958;2023-07-31T03:26:54;13.10;99.90
3202;DHT22;34843;48.744;8.958;2023-07-31T03:29:19;13.20;99.90
3202;DHT22;34843;48.744;8.958;2023-07-31T03:31:45;13.20;99.90
3202;DHT22;34843;48.744;8.958;2023-07-31T03:34:10;13.20;99.90
3202;DHT22;34843;48.744;8.958;2023-07-31T03:36:36;13.20;99.90
3202;DHT22;34843;48.744;8.958;2023-07-31T03:39:01;13.20;99.90
3202;DHT22;34843;48.744;8.958;2023-07-31T03:41:27;13.20;99.90
3202;DHT22;34843;48.744;8.958;2023-07-31T03:43:52;13.30;99.90
3202;DHT22;34843;48.744;8.958;2023-07-31T03:46:18;13.30;99.90
3202;DHT22;34843;48.744;8.958;2023-07-31T03:48:44;13.30;99.90
3202;DHT22;34843;48.744;8.958;2023-07-31T03:51:09;13.40;99.90
3202;DHT22;34843;48.744;8.958;2023-07-31T03:53:35;13.60;99.90
3202;DHT22;34843;48.744;8.958;2023-07-31T03:56:00;13.60;99.90
3202;DHT22;34843;48.744;8.958;2023-07-31T03:58:26;13.70;99.90
3202;DHT22;34843;48.744;8.958;2023-07-31T04:00:51;13.80;99.90
3202;DHT22;34843;48.744;8.958;2023-07-31T04:03:16;13.90;99.90
3202;DHT22;34843;48.744;8.958;2023-07-31T04:05:42;14.00;99.90
3202;DHT22;34843;48.744;8.958;2023-07-31T04:08:07;14.10;99.90
3202;DHT22;34843;48.744;8.958;2023-07-31T04:10:33;14.10;99.90
3202;DHT22;34843;48.744;8.958;2023-07-31T04:12:59;14.20;99.90
3202;DHT22;34843;48.744;8.958;2023-07-31T04:15:25;14.30;99.90
3202;DHT22;34843;48.744;8.958;2023-07-31T04:17:51;14.30;99.90
3202;DHT22;34843;48.744;8.958;2023-07-31T04:20:17;14.40;99.90
3202;DHT22;34843;48.744;8.958;2023-07-31T04:22:42;14.40;99.90
3202;DHT22;34843;48.744;8.958;2023-07-31T04:25:08;14.50;99.90
3202;DHT22;34843;48.744;8.958;2023-07-31T04:27:33;14.50;99.90
3202;DHT22;34843;48.744;8.958;2023-07-31T04:29:59;13.50;99.90
3202;DHT22;34843;48.744;8.958;2023-07-31T04:32:24;14.60;99.90
3202;DHT22;34843;48.744;8.958;2023-07-31T04:34:50;14.90;99.90
3202;DHT22;34843;48.744;8.958;2023-07-31T04:37:15;15.00;99.90
3202;DHT22;34843;48.744;8.958;2023-07-31T04:39:41;15.20;99.90
3202;DHT22;34843;48.744;8.958;2023-07-31T04:42:06;15.30;99.90
3202;DHT22;34843;48.744;8.958;2023-07-31T04:44:32;15.60;99.90
3202;DHT22;34843;48.744;8.958;2023-07-31T04:46:57;15.60;99.90
3202;DHT22;34843;48.744;8.958;2023-07-31T04:49:23;15.60;99.90
3202;DHT22;34843;48.744;8.958;2023-07-31T04:51:48;15.70;99.90
3202;DHT22;34843;48.744;8.958;2023-07-31T04:54:14;15.60;99.90
3202;DHT22;34843;48.744;8.958;2023-07-31T04:56:42;15.60;99.90
3202;DHT22;34843;48.744;8.958;2023-07-31T04:59:08;15.70;99.90
3202;DHT22;34843;48.744;8.958;2023-07-31T05:01:33;15.80;99.90
3202;DHT22;34843;48.744;8.958;2023-07-31T05:03:59;15.90;99.90
3202;DHT22;34843;48.744;8.958;2023-07-31T05:06:24;15.90;99.90
3202;DHT22;34843;48.744;8.958;2023-07-31T05:08:50;16.00;99.90
3202;DHT22;34843;48.744;8.958;2023-07-31T05:11:15;16.10;99.90
3202;DHT22;34843;48.744;8.958;2023-07-31T05:13:41;16.40;99.90
3202;DHT22;34843;48.744;8.958;2023-07-31T05:16:06;16.40;99.90
3202;DHT22;34843;48.744;8.958;2023-07-31T05:18:32;16.50;99.90
3202;DHT22;34843;48.744;8.958;2023-07-31T05:20:57;16.60;99.90
3202;DHT22;34843;48.744;8.958;2023-07-31T05:23:23;17.00;99.90
3202;DHT22;34843;48.744;8.958;2023-07-31T05:25:48;17.40;99.90
3202;DHT22;34843;48.744;8.958;2023-07-31T05:28:14;17.70;99.90
3202;DHT22;34843;48.744;8.958;2023-07-31T05:30:39;18.20;99.90
3202;DHT22;34843;48.744;8.958;2023-07-31T05:33:05;18.90;99.90
3202;DHT22;34843;48.744;8.958;2023-07-31T05:35:30;19.70;99.90
3202;DHT22;34843;48.744;8.958;2023-07-31T05:37:56;20.10;99.90
3202;DHT22;34843;48.744;8.958;2023-07-31T05:40:21;20.30;99.90
3202;DHT22;34843;48.744;8.958;2023-07-31T05:42:47;20.30;99.90
3202;DHT22;34843;48.744;8.958;2023-07-31T05:45:12;20.30;99.90
3202;DHT22;34843;48.744;8.958;2023-07-31T05:47:39;20.30;99.90
3202;DHT22;34843;48.744;8.958;2023-07-31T05:50:05;20.20;99.90
3202;DHT22;34843;48.744;8.958;2023-07-31T05:52:30;20.20;99.90
3202;DHT22;34843;48.744;8.958;2023-07-31T05:54:56;20.40;99.90
3202;DHT22;34843;48.744;8.958;2023-07-31T05:57:21;20.50;99.90
3202;DHT22;34843;48.744;8.958;2023-07-31T05:59:47;20.60;99.90
3202;DHT22;34843;48.744;8.958;2023-07-31T06:02:12;21.00;99.90
3202;DHT22;34843;48.744;8.958;2023-07-31T06:04:38;21.00;99.90
3202;DHT22;34843;48.744;8.958;2023-07-31T06:07:04;20.80;99.90
3202;DHT22;34843;48.744;8.958;2023-07-31T06:09:29;20.60;99.90
3202;DHT22;34843;48.744;8.958;2023-07-31T06:11:55;20.40;99.90
3202;DHT22;34843;48.744;8.958;2023-07-31T06:14:20;20.30;99.90
3202;DHT22;34843;48.744;8.958;2023-07-31T06:16:46;20.40;99.90
3202;DHT22;34843;48.744;8.958;2023-07-31T06:19:11;20.70;99.90
3202;DHT22;34843;48.744;8.958;2023-07-31T06:21:38;20.80;99.90
3202;DHT22;34843;48.744;8.958;2023-07-31T06:24:05;21.40;99.90
3202;DHT22;34843;48.744;8.958;2023-07-31T06:26:31;21.50;99.90
3202;DHT22;34843;48.744;8.958;2023-07-31T06:28:56;21.50;99.90
3202;DHT22;34843;48.744;8.958;2023-07-31T06:31:22;21.70;99.90
3202;DHT22;34843;48.744;8.958;2023-07-31T06:33:51;22.90;99.90
3202;DHT22;34843;48.744;8.958;2023-07-31T06:36:17;23.10;99.90
3202;DHT22;34843;48.744;8.958;2023-07-31T06:38:43;25.30;99.90
3202;DHT22;34843;48.744;8.958;2023-07-31T06:41:09;26.80;99.90
3202;DHT22;34843;48.744;8.958;2023-07-31T06:43:36;27.60;99.90
3202;DHT22;34843;48.744;8.958;2023-07-31T06:46:08;27.60;99.90
3202;DHT22;34843;48.744;8.958;2023-07-31T06:48:34;28.40;99.90
3202;DHT22;34843;48.744;8.958;2023-07-31T06:51:00;28.90;99.90
3202;DHT22;34843;48.744;8.958;2023-07-31T06:53:26;28.50;99.90
3202;DHT22;34843;48.744;8.958;2023-07-31T06:55:51;27.60;99.90
3202;DHT22;34843;48.744;8.958;2023-07-31T06:58:17;26.60;99.90
3202;DHT22;34843;48.744;8.958;2023-07-31T07:00:43;26.10;99.90
3202;DHT22;34843;48.744;8.958;2023-07-31T07:03:09;26.00;99.90
3202;DHT22;34843;48.744;8.958;2023-07-31T07:05:34;26.50;99.90
3202;DHT22;34843;48.744;8.958;2023-07-31T07:08:00;26.10;99.90
3202;DHT22;34843;48.744;8.958;2023-07-31T07:10:25;27.20;99.90
3202;DHT22;34843;48.744;8.958;2023-07-31T07:12:51;26.20;99.90
3202;DHT22;34843;48.744;8.958;2023-07-31T07:15:17;27.00;99.90
3202;DHT22;34843;48.744;8.958;2023-07-31T07:17:42;27.30;99.90
3202;DHT22;34843;48.744;8.958;2023-07-31T07:20:08;27.40;99.90
3202;DHT22;34843;48.744;8.958;2023-07-31T07:22:34;27.60;99.90
3202;DHT22;34843;48.744;8.958;2023-07-31T07:24:59;27.50;99.90
3202;DHT22;34843;48.744;8.958;2023-07-31T07:27:25;26.80;99.90
3202;DHT22;34843;48.744;8.958;2023-07-31T07:29:51;26.20;99.90
3202;DHT22;34843;48.744;8.958;2023-07-31T07:32:19;25.20;99.90
3202;DHT22;34843;48.744;8.958;2023-07-31T07:34:47;24.90;99.90
3202;DHT22;34843;48.744;8.958;2023-07-31T07:37:13;24.90;99.90
3202;DHT22;34843;48.744;8.958;2023-07-31T07:39:39;25.00;99.90
3202;DHT22;34843;48.744;8.958;2023-07-31T07:42:04;24.80;99.90
3202;DHT22;34843;48.744;8.958;2023-07-31T07:44:30;25.00;99.90
3202;DHT22;34843;48.744;8.958;2023-07-31T07:46:55;25.80;99.90
3202;DHT22;34843;48.744;8.958;2023-07-31T07:49:21;26.60;99.90
3202;DHT22;34843;48.744;8.958;2023-07-31T07:51:48;27.80;99.90
3202;DHT22;34843;48.744;8.958;2023-07-31T07:54:13;27.90;99.90
3202;DHT22;34843;48.744;8.958;2023-07-31T07:56:39;28.50;99.90
3202;DHT22;34843;48.744;8.958;2023-07-31T07:59:05;29.40;99.90
3202;DHT22;34843;48.744;8.958;2023-07-31T08:01:30;30.60;99.90
3202;DHT22;34843;48.744;8.958;2023-07-31T08:03:56;30.60;99.90
3202;DHT22;34843;48.744;8.958;2023-07-31T08:06:21;30.40;99.90
3202;DHT22;34843;48.744;8.958;2023-07-31T08:08:48;29.60;99.90
3202;DHT22;34843;48.744;8.958;2023-07-31T08:11:13;28.80;99.90
3202;DHT22;34843;48.744;8.958;2023-07-31T08:13:39;29.30;99.90
3202;DHT22;34843;48.744;8.958;2023-07-31T08:16:04;29.60;99.90
3202;DHT22;34843;48.744;8.958;2023-07-31T08:18:31;29.80;99.90
3202;DHT22;34843;48.744;8.958;2023-07-31T08:20:58;30.00;99.90
3202;DHT22;34843;48.744;8.958;2023-07-31T08:23:23;30.40;99.90
3202;DHT22;34843;48.744;8.958;2023-07-31T08:25:49;29.70;99.90
3202;DHT22;34843;48.744;8.958;2023-07-31T08:28:16;28.60;99.90
3202;DHT22;34843;48.744;8.958;2023-07-31T08:30:41;27.70;99.90
3202;DHT22;34843;48.744;8.958;2023-07-31T08:33:07;26.70;99.90
3202;DHT22;34843;48.744;8.958;2023-07-31T08:35:32;26.30;99.90
3202;DHT22;34843;48.744;8.958;2023-07-31T08:37:58;25.90;99.90
3202;DHT22;34843;48.744;8.958;2023-07-31T08:40:24;25.50;99.90
3202;DHT22;34843;48.744;8.958;2023-07-31T08:42:54;24.80;99.90
3202;DHT22;34843;48.744;8.958;2023-07-31T08:45:22;24.70;99.90
3202;DHT22;34843;48.744;8.958;2023-07-31T08:47:51;24.60;99.90
3202;DHT22;34843;48.744;8.958;2023-07-31T08:50:18;24.60;99.90
3202;DHT22;34843;48.744;8.958;2023-07-31T08:52:46;24.90;99.90
3202;DHT22;34843;48.744;8.958;2023-07-31T08:55:12;25.30;99.90
3202;DHT22;34843;48.744;8.958;2023-07-31T08:57:38;25.70;99.90
3202;DHT22;34843;48.744;8.958;2023-07-31T09:00:07;25.80;99.90
3202;DHT22;34843;48.744;8.958;2023-07-31T09:02:51;25.20;99.90
3202;DHT22;34843;48.744;8.958;2023-07-31T09:05:17;24.90;99.90
3202;DHT22;34843;48.744;8.958;2023-07-31T09:07:45;25.20;99.90
3202;DHT22;34843;48.744;8.958;2023-07-31T09:10:12;25.70;99.90
3202;DHT22;34843;48.744;8.958;2023-07-31T09:12:38;26.10;99.90
3202;DHT22;34843;48.744;8.958;2023-07-31T09:15:04;26.50;99.90
3202;DHT22;34843;48.744;8.958;2023-07-31T09:17:34;26.50;99.90
3202;DHT22;34843;48.744;8.958;2023-07-31T09:20:18;26.30;99.90
3202;DHT22;34843;48.744;8.958;2023-07-31T09:22:45;25.60;99.90
3202;DHT22;34843;48.744;8.958;2023-07-31T09:25:15;25.50;99.90
3202;DHT22;34843;48.744;8.958;2023-07-31T09:28:03;25.10;99.90
3202;DHT22;34843;48.744;8.958;2023-07-31T09:30:29;24.70;99.90
3202;DHT22;34843;48.744;8.958;2023-07-31T09:33:03;24.10;99.90
3202;DHT22;34843;48.744;8.958;2023-07-31T09:35:30;23.90;99.90
3202;DHT22;34843;48.744;8.958;2023-07-31T09:38:03;23.90;99.90
3202;DHT22;34843;48.744;8.958;2023-07-31T09:40:30;24.10;99.90
3202;DHT22;34843;48.744;8.958;2023-07-31T09:43:00;24.40;99.90
3202;DHT22;34843;48.744;8.958;2023-07-31T09:45:27;24.30;99.90
3202;DHT22;34843;48.744;8.958;2023-07-31T09:47:53;24.30;99.90
3202;DHT22;34843;48.744;8.958;2023-07-31T09:50:21;24.20;99.90
3202;DHT22;34843;48.744;8.958;2023-07-31T09:52:47;24.00;99.90
3202;DHT22;34843;48.744;8.958;2023-07-31T09:55:13;24.00;99.90
3202;DHT22;34843;48.744;8.958;2023-07-31T09:57:40;24.30;99.90
3202;DHT22;34843;48.744;8.958;2023-07-31T10:00:14;24.70;99.90
3202;DHT22;34843;48.744;8.958;2023-07-31T10:02:40;24.70;99.90
3202;DHT22;34843;48.744;8.958;2023-07-31T10:05:07;24.70;99.90
3202;DHT22;34843;48.744;8.958;2023-07-31T10:07:37;24.70;99.90
3202;DHT22;34843;48.744;8.958;2023-07-31T10:10:04;24.70;99.90
3202;DHT22;34843;48.744;8.958;2023-07-31T10:12:33;25.00;99.90
3202;DHT22;34843;48.744;8.958;2023-07-31T10:15:00;25.10;99.90
3202;DHT22;34843;48.744;8.958;2023-07-31T10:17:26;25.40;99.90
3202;DHT22;34843;48.744;8.958;2023-07-31T10:19:53;25.50;99.90
3202;DHT22;34843;48.744;8.958;2023-07-31T10:22:19;25.30;99.90
3202;DHT22;34843;48.744;8.958;2023-07-31T10:24:46;25.20;99.90
3202;DHT22;34843;48.744;8.958;2023-07-31T10:27:12;25.10;99.90
3202;DHT22;34843;48.744;8.958;2023-07-31T10:29:39;25.00;99.90
3202;DHT22;34843;48.744;8.958;2023-07-31T10:32:06;25.10;99.90
3202;DHT22;34843;48.744;8.958;2023-07-31T10:34:35;25.10;99.90
3202;DHT22;34843;48.744;8.958;2023-07-31T10:37:27;25.00;99.90
3202;DHT22;34843;48.744;8.958;2023-07-31T10:40:05;25.00;99.90
3202;DHT22;34843;48.744;8.958;2023-07-31T10:42:48;24.50;99.90
3202;DHT22;34843;48.744;8.958;2023-07-31T10:45:33;24.60;99.90
3202;DHT22;34843;48.744;8.958;2023-07-31T10:48:06;24.80;99.90
3202;DHT22;34843;48.744;8.958;2023-07-31T10:50:37;25.00;99.90
3202;DHT22;34843;48.744;8.958;2023-07-31T10:53:03;25.50;99.90
3202;DHT22;34843;48.744;8.958;2023-07-31T10:55:38;25.50;99.90
3202;DHT22;34843;48.744;8.958;2023-07-31T10:58:10;25.60;99.90
3202;DHT22;34843;48.744;8.958;2023-07-31T11:00:41;25.80;99.90
3202;DHT22;34843;48.744;8.958;2023-07-31T11:03:17;25.60;99.90
3202;DHT22;34843;48.744;8.958;2023-07-31T11:05:45;25.70;99.90
3202;DHT22;34843;48.744;8.958;2023-07-31T11:08:28;25.70;99.90
3202;DHT22;34843;48.744;8.958;2023-07-31T11:13:32;25.60;99.90
3202;DHT22;34843;48.744;8.958;2023-07-31T11:15:58;25.60;99.90
3202;DHT22;34843;48.744;8.958;2023-07-31T11:18:26;25.50;99.90
3202;DHT22;34843;48.744;8.958;2023-07-31T11:20:52;25.20;99.90
3202;DHT22;34843;48.744;8.958;2023-07-31T11:23:17;25.00;99.90
3202;DHT22;34843;48.744;8.958;2023-07-31T11:25:43;25.00;99.90
3202;DHT22;34843;48.744;8.958;2023-07-31T11:28:14;25.00;99.90
3202;DHT22;34843;48.744;8.958;2023-07-31T11:30:40;25.00;99.90
3202;DHT22;34843;48.744;8.958;2023-07-31T11:33:07;25.00;99.90
3202;DHT22;34843;48.744;8.958;2023-07-31T11:35:41;24.90;99.90
3202;DHT22;34843;48.744;8.958;2023-07-31T11:38:07;24.90;99.90
3202;DHT22;34843;48.744;8.958;2023-07-31T11:40:41;24.70;99.90
3202;DHT22;34843;48.744;8.958;2023-07-31T11:43:07;24.80;99.90
3202;DHT22;34843;48.744;8.958;2023-07-31T11:45:33;24.70;99.90
3202;DHT22;34843;48.744;8.958;2023-07-31T11:48:00;24.60;99.90
3202;DHT22;34843;48.744;8.958;2023-07-31T11:50:26;24.60;99.90
3202;DHT22;34843;48.744;8.958;2023-07-31T11:52:55;24.70;99.90
3202;DHT22;34843;48.744;8.958;2023-07-31T11:55:22;24.70;99.90
3202;DHT22;34843;48.744;8.958;2023-07-31T11:57:47;24.80;99.90
3202;DHT22;34843;48.744;8.958;2023-07-31T12:00:14;24.90;99.90
3202;DHT22;34843;48.744;8.958;2023-07-31T12:02:40;24.60;99.90
3202;DHT22;34843;48.744;8.958;2023-07-31T12:05:13;24.50;99.90
3202;DHT22;34843;48.744;8.958;2023-07-31T12:07:49;24.60;99.90
3202;DHT22;34843;48.744;8.958;2023-07-31T12:10:42;24.50;99.90
3202;DHT22;34843;48.744;8.958;2023-07-31T12:13:10;24.30;99.90
3202;DHT22;34843;48.744;8.958;2023-07-31T12:15:58;24.30;99.90
3202;DHT22;34843;48.744;8.958;2023-07-31T12:18:26;24.30;99.90
3202;DHT22;34843;48.744;8.958;2023-07-31T12:20:57;24.50;99.90
3202;DHT22;34843;48.744;8.958;2023-07-31T12:23:25;24.40;99.90
3202;DHT22;34843;48.744;8.958;2023-07-31T12:26:04;24.10;99.90
3202;DHT22;34843;48.744;8.958;2023-07-31T12:28:30;23.70;99.90
3202;DHT22;34843;48.744;8.958;2023-07-31T12:31:00;23.50;99.90
3202;DHT22;34843;48.744;8.958;2023-07-31T12:33:31;23.20;99.90
3202;DHT22;34843;48.744;8.958;2023-07-31T12:35:57;23.00;99.90
3202;DHT22;34843;48.744;8.958;2023-07-31T12:38:23;23.00;99.90
3202;DHT22;34843;48.744;8.958;2023-07-31T12:40:48;23.20;99.90
3202;DHT22;34843;48.744;8.958;2023-07-31T12:43:14;23.30;99.90
3202;DHT22;34843;48.744;8.958;2023-07-31T12:45:39;23.50;99.90
3202;DHT22;34843;48.744;8.958;2023-07-31T12:48:05;23.70;99.90
3202;DHT22;34843;48.744;8.958;2023-07-31T12:50:30;27.50;99.90
3202;DHT22;34843;48.744;8.958;2023-07-31T12:52:57;24.10;99.90
3202;DHT22;34843;48.744;8.958;2023-07-31T12:55:23;24.30;99.90
3202;DHT22;34843;48.744;8.958;2023-07-31T12:57:49;24.50;99.90
3202;DHT22;34843;48.744;8.958;2023-07-31T13:00:15;24.50;99.90
3202;DHT22;34843;48.744;8.958;2023-07-31T13:02:41;24.40;99.90
3202;DHT22;34843;48.744;8.958;2023-07-31T13:05:06;24.40;99.90
3202;DHT22;34843;48.744;8.958;2023-07-31T13:07:32;24.70;99.90
3202;DHT22;34843;48.744;8.958;2023-07-31T13:09:57;25.00;99.90
3202;DHT22;34843;48.744;8.958;2023-07-31T13:12:23;24.90;99.90
3202;DHT22;34843;48.744;8.958;2023-07-31T13:14:49;24.90;99.90
3202;DHT22;34843;48.744;8.958;2023-07-31T13:17:15;25.00;99.90
3202;DHT22;34843;48.744;8.958;2023-07-31T13:19:40;25.10;99.90
3202;DHT22;34843;48.744;8.958;2023-07-31T13:22:06;25.00;99.90
3202;DHT22;34843;48.744;8.958;2023-07-31T13:24:31;25.00;99.90
3202;DHT22;34843;48.744;8.958;2023-07-31T13:26:57;25.10;99.90
3202;DHT22;34843;48.744;8.958;2023-07-31T13:29:23;25.20;99.90
3202;DHT22;34843;48.744;8.958;2023-07-31T13:31:49;25.30;99.90
3202;DHT22;34843;48.744;8.958;2023-07-31T13:34:15;25.30;99.90
3202;DHT22;34843;48.744;8.958;2023-07-31T13:36:40;25.40;99.90
3202;DHT22;34843;48.744;8.958;2023-07-31T13:39:07;25.30;99.90
3202;DHT22;34843;48.744;8.958;2023-07-31T13:41:32;25.20;99.90
3202;DHT22;34843;48.744;8.958;2023-07-31T13:43:58;25.10;99.90
3202;DHT22;34843;48.744;8.958;2023-07-31T13:46:23;25.20;99.90
3202;DHT22;34843;48.744;8.958;2023-07-31T13:48:50;25.20;99.90
3202;DHT22;34843;48.744;8.958;2023-07-31T13:51:16;25.20;99.90
3202;DHT22;34843;48.744;8.958;2023-07-31T13:53:41;25.10;99.90
3202;DHT22;34843;48.744;8.958;2023-07-31T13:56:07;24.90;99.90
3202;DHT22;34843;48.744;8.958;2023-07-31T13:58:33;24.90;99.90
3202;DHT22;34843;48.744;8.958;2023-07-31T14:00:58;25.00;99.90
3202;DHT22;34843;48.744;8.958;2023-07-31T14:03:24;25.10;99.90
3202;DHT22;34843;48.744;8.958;2023-07-31T14:05:51;25.20;99.90
3202;DHT22;34843;48.744;8.958;2023-07-31T14:08:17;25.30;99.90
3202;DHT22;34843;48.744;8.958;2023-07-31T14:10:42;25.40;99.90
3202;DHT22;34843;48.744;8.958;2023-07-31T14:13:08;25.50;99.90
3202;DHT22;34843;48.744;8.958;2023-07-31T14:15:33;25.60;99.90
3202;DHT22;34843;48.744;8.958;2023-07-31T14:18:01;25.80;99.90
3202;DHT22;34843;48.744;8.958;2023-07-31T14:20:26;25.90;99.90
3202;DHT22;34843;48.744;8.958;2023-07-31T14:22:52;25.90;99.90
3202;DHT22;34843;48.744;8.958;2023-07-31T14:25:17;26.00;99.90
3202;DHT22;34843;48.744;8.958;2023-07-31T14:27:43;26.00;99.90
3202;DHT22;34843;48.744;8.958;2023-07-31T14:30:09;25.90;99.90
3202;DHT22;34843;48.744;8.958;2023-07-31T14:32:34;25.60;99.90
3202;DHT22;34843;48.744;8.958;2023-07-31T14:35:00;25.50;99.90
3202;DHT22;34843;48.744;8.958;2023-07-31T14:37:26;25.40;99.90
3202;DHT22;34843;48.744;8.958;2023-07-31T14:39:53;25.50;99.90
3202;DHT22;34843;48.744;8.958;2023-07-31T14:42:18;25.70;99.90
3202;DHT22;34843;48.744;8.958;2023-07-31T14:44:44;25.80;99.90
3202;DHT22;34843;48.744;8.958;2023-07-31T14:47:10;25.80;99.90
3202;DHT22;34843;48.744;8.958;2023-07-31T14:49:35;25.70;99.90
3202;DHT22;34843;48.744;8.958;2023-07-31T14:52:01;25.60;99.90
3202;DHT22;34843;48.744;8.958;2023-07-31T14:54:26;25.50;99.90
3202;DHT22;34843;48.744;8.958;2023-07-31T14:56:52;25.30;99.90
3202;DHT22;34843;48.744;8.958;2023-07-31T14:59:17;24.90;99.90
3202;DHT22;34843;48.744;8.958;2023-07-31T15:01:43;24.50;99.90
3202;DHT22;34843;48.744;8.958;2023-07-31T15:04:08;24.50;99.90
3202;DHT22;34843;48.744;8.958;2023-07-31T15:06:34;24.40;99.90
3202;DHT22;34843;48.744;8.958;2023-07-31T15:08:59;24.20;99.90
3202;DHT22;34843;48.744;8.958;2023-07-31T15:11:25;24.10;99.90
3202;DHT22;34843;48.744;8.958;2023-07-31T15:13:50;24.30;99.90
3202;DHT22;34843;48.744;8.958;2023-07-31T15:16:16;24.40;99.90
3202;DHT22;34843;48.744;8.958;2023-07-31T15:18:42;24.40;99.90
3202;DHT22;34843;48.744;8.958;2023-07-31T15:21:07;24.50;99.90
3202;DHT22;34843;48.744;8.958;2023-07-31T15:23:34;24.70;99.90
3202;DHT22;34843;48.744;8.958;2023-07-31T15:26:00;24.70;99.90
3202;DHT22;34843;48.744;8.958;2023-07-31T15:28:25;24.70;99.90
3202;DHT22;34843;48.744;8.958;2023-07-31T15:30:51;24.70;99.90
3202;DHT22;34843;48.744;8.958;2023-07-31T15:33:16;24.80;99.90
3202;DHT22;34843;48.744;8.958;2023-07-31T15:35:42;24.90;99.90
3202;DHT22;34843;48.744;8.958;2023-07-31T15:38:08;24.90;99.90
3202;DHT22;34843;48.744;8.958;2023-07-31T15:40:34;24.80;99.90
3202;DHT22;34843;48.744;8.958;2023-07-31T15:43:00;24.90;99.90
3202;DHT22;34843;48.744;8.958;2023-07-31T15:45:27;24.80;99.90
3202;DHT22;34843;48.744;8.958;2023-07-31T15:47:53;24.60;99.90
3202;DHT22;34843;48.744;8.958;2023-07-31T15:50:18;24.50;99.90
3202;DHT22;34843;48.744;8.958;2023-07-31T15:52:45;24.60;99.90